West Halifax, VT (05358)

1:02 PM EST on December 28, 2014 (GMT -0500)
South of the Village | Change Station
CLOSE
Current Station
Personal Weather Station
Location: Jacksonville, VT
Elevation: 1545 ft
Nearby Weather Stations

Elev 1545 ft 42.76 °N, 72.81 °W | Updated 2 minutes ago

Overcast
Overcast
39.2 °F
Feels Like 31 °F
N
15.2
Wind Variable Wind from West
Gusts 25.1 mph

Today
High -- | Low -- °F
--% Chance of Precip.
Yesterday
High -- | Low -- °F
Precip. -- in
7:21 AM 4:24 PM
Waxing Crescent, 50% visible
Pressure 29.86 in
Visibility 10.0 miles
Clouds Mostly Cloudy 2500 ft
Mostly Cloudy 3100 ft
Windchill 31 °F
Dew Point 30 °F
Humidity 69%
Rainfall 0.20 in
Snow Depth Not available.
UV 1 out of 12
Pollen .10 out of 12
Air Quality Not available.
Flu Activity Not available.
METAR KAQW 281752Z AUTO 27011G22KT 10SM BKN025 BKN031 06/00 A2985 RMK AO2 SLP111 60010 T00560000 10072 20044 53001

More Conditions Fewer Conditions

Pressure 29.86 in
Visibility 10.0 miles
Clouds Mostly Cloudy 2500 ft
Mostly Cloudy 3100 ft
Windchill 31 °F
Dew Point 30 °F
Humidity 69%
Rainfall 0.20 in
Snow Depth Not available.
UV 1 out of 12
Pollen .10 out of 12
Air Quality Not available.
Flu Activity Not available.
METAR KAQW 281752Z AUTO 27011G22KT 10SM BKN025 BKN031 06/00 A2985 RMK AO2 SLP111 60010 T00560000 10072 20044 53001

More Conditions Fewer Conditions

10-Day Weather Forecast

Almanac

Astronomy

Dec. 28, 2014 Rise Set
Actual Time
Civil Twilight
Nautical Twilight
Astronomical Twilight
Moon
Length of Visible Light
Length of Day
Tomorrow will be .
, % of the Moon is Illuminated

Today's Extremes

State Highs State Lows

Community

WunderPhotos

Upload Photos

1,781,375 photos uploaded!

WunderBlogs® & News

Nearby

Air Quality

  Air Quality AQ Index Pollutant
Not available.

Snow Depth

Station Depth Elevation

Earthquake Activity

City Distance Mag. Time & Date
Minimum magnitude displayed is 2.5.

Coastal Water Temperatures

Place Temperature

Nearby Weather Stations